sensor_id;sensor_type;location;lat;lon;timestamp;temperature;humidity
29539;DHT22;16482;51.046;4.498;2022-08-03T00:01:39;26.60;54.60
29539;DHT22;16482;51.046;4.498;2022-08-03T00:04:06;26.70;54.70
29539;DHT22;16482;51.046;4.498;2022-08-03T00:06:32;26.60;54.50
29539;DHT22;16482;51.046;4.498;2022-08-03T00:08:58;26.70;54.60
29539;DHT22;16482;51.046;4.498;2022-08-03T00:11:27;26.60;54.50
29539;DHT22;16482;51.046;4.498;2022-08-03T00:14:00;26.70;54.40
29539;DHT22;16482;51.046;4.498;2022-08-03T00:16:26;26.70;54.30
29539;DHT22;16482;51.046;4.498;2022-08-03T00:19:00;26.60;54.20
29539;DHT22;16482;51.046;4.498;2022-08-03T00:21:26;26.70;54.10
29539;DHT22;16482;51.046;4.498;2022-08-03T00:24:00;26.70;54.10
29539;DHT22;16482;51.046;4.498;2022-08-03T00:26:28;26.60;54.10
29539;DHT22;16482;51.046;4.498;2022-08-03T00:28:57;26.60;54.00
29539;DHT22;16482;51.046;4.498;2022-08-03T00:31:32;26.70;53.90
29539;DHT22;16482;51.046;4.498;2022-08-03T00:33:58;26.60;53.90
29539;DHT22;16482;51.046;4.498;2022-08-03T00:36:32;26.60;53.90
29539;DHT22;16482;51.046;4.498;2022-08-03T00:38:58;26.60;53.80
29539;DHT22;16482;51.046;4.498;2022-08-03T00:41:32;26.60;53.70
29539;DHT22;16482;51.046;4.498;2022-08-03T00:43:57;26.60;53.70
29539;DHT22;16482;51.046;4.498;2022-08-03T00:46:26;26.60;53.60
29539;DHT22;16482;51.046;4.498;2022-08-03T00:48:59;26.60;54.20
29539;DHT22;16482;51.046;4.498;2022-08-03T00:51:28;26.60;53.40
29539;DHT22;16482;51.046;4.498;2022-08-03T00:54:01;26.60;53.50
29539;DHT22;16482;51.046;4.498;2022-08-03T00:56:27;26.60;53.40
29539;DHT22;16482;51.046;4.498;2022-08-03T00:58:56;26.60;53.30
29539;DHT22;16482;51.046;4.498;2022-08-03T01:01:26;26.60;53.30
29539;DHT22;16482;51.046;4.498;2022-08-03T01:03:58;26.60;53.20
29539;DHT22;16482;51.046;4.498;2022-08-03T01:12:07;26.60;53.10
29539;DHT22;16482;51.046;4.498;2022-08-03T01:14:51;26.60;53.10
29539;DHT22;16482;51.046;4.498;2022-08-03T01:17:24;26.60;53.10
29539;DHT22;16482;51.046;4.498;2022-08-03T01:20:01;26.60;53.10
29539;DHT22;16482;51.046;4.498;2022-08-03T01:23:02;26.60;53.00
29539;DHT22;16482;51.046;4.498;2022-08-03T01:25:50;26.60;52.90
29539;DHT22;16482;51.046;4.498;2022-08-03T01:30:52;26.50;52.90
29539;DHT22;16482;51.046;4.498;2022-08-03T01:33:22;26.60;52.90
29539;DHT22;16482;51.046;4.498;2022-08-03T01:36:00;26.50;52.80
29539;DHT22;16482;51.046;4.498;2022-08-03T01:38:31;26.60;52.80
29539;DHT22;16482;51.046;4.498;2022-08-03T01:41:03;26.60;52.70
29539;DHT22;16482;51.046;4.498;2022-08-03T01:43:30;26.50;52.70
29539;DHT22;16482;51.046;4.498;2022-08-03T01:45:57;26.60;52.80
29539;DHT22;16482;51.046;4.498;2022-08-03T01:48:25;26.50;52.60
29539;DHT22;16482;51.046;4.498;2022-08-03T01:50:53;26.60;52.70
29539;DHT22;16482;51.046;4.498;2022-08-03T01:53:21;26.50;52.60
29539;DHT22;16482;51.046;4.498;2022-08-03T01:55:52;26.60;52.60
29539;DHT22;16482;51.046;4.498;2022-08-03T01:58:20;26.50;52.50
29539;DHT22;16482;51.046;4.498;2022-08-03T02:00:48;26.50;52.50
29539;DHT22;16482;51.046;4.498;2022-08-03T02:03:15;26.50;52.50
29539;DHT22;16482;51.046;4.498;2022-08-03T02:05:44;26.60;52.60
29539;DHT22;16482;51.046;4.498;2022-08-03T02:08:12;26.60;52.50
29539;DHT22;16482;51.046;4.498;2022-08-03T02:10:41;26.50;52.40
29539;DHT22;16482;51.046;4.498;2022-08-03T02:13:09;26.50;52.40
29539;DHT22;16482;51.046;4.498;2022-08-03T02:15:39;26.50;52.30
29539;DHT22;16482;51.046;4.498;2022-08-03T02:18:08;26.50;52.40
29539;DHT22;16482;51.046;4.498;2022-08-03T02:20:39;26.60;52.40
29539;DHT22;16482;51.046;4.498;2022-08-03T02:23:09;26.50;52.30
29539;DHT22;16482;51.046;4.498;2022-08-03T02:25:47;26.50;52.40
29539;DHT22;16482;51.046;4.498;2022-08-03T02:28:19;26.50;52.30
29539;DHT22;16482;51.046;4.498;2022-08-03T02:30:51;26.50;52.30
29539;DHT22;16482;51.046;4.498;2022-08-03T02:33:24;26.50;52.30
29539;DHT22;16482;51.046;4.498;2022-08-03T02:35:52;26.50;52.30
29539;DHT22;16482;51.046;4.498;2022-08-03T02:38:20;26.60;52.30
29539;DHT22;16482;51.046;4.498;2022-08-03T02:40:49;26.50;52.20
29539;DHT22;16482;51.046;4.498;2022-08-03T02:43:18;26.60;52.30
29539;DHT22;16482;51.046;4.498;2022-08-03T02:45:48;26.50;52.20
29539;DHT22;16482;51.046;4.498;2022-08-03T02:48:20;26.50;52.20
29539;DHT22;16482;51.046;4.498;2022-08-03T02:50:50;26.50;52.30
29539;DHT22;16482;51.046;4.498;2022-08-03T02:53:18;26.50;52.20
29539;DHT22;16482;51.046;4.498;2022-08-03T02:55:46;26.60;52.90
29539;DHT22;16482;51.046;4.498;2022-08-03T02:58:13;26.50;52.20
29539;DHT22;16482;51.046;4.498;2022-08-03T03:00:43;26.50;52.30
29539;DHT22;16482;51.046;4.498;2022-08-03T03:03:10;26.50;52.30
29539;DHT22;16482;51.046;4.498;2022-08-03T03:05:37;26.50;52.30
29539;DHT22;16482;51.046;4.498;2022-08-03T03:08:14;26.50;52.30
29539;DHT22;16482;51.046;4.498;2022-08-03T03:10:41;26.50;52.30
29539;DHT22;16482;51.046;4.498;2022-08-03T03:13:08;26.50;52.40
29539;DHT22;16482;51.046;4.498;2022-08-03T03:15:38;26.40;52.30
29539;DHT22;16482;51.046;4.498;2022-08-03T03:18:06;26.50;52.40
29539;DHT22;16482;51.046;4.498;2022-08-03T03:20:38;26.50;52.40
29539;DHT22;16482;51.046;4.498;2022-08-03T03:23:08;26.40;52.30
29539;DHT22;16482;51.046;4.498;2022-08-03T03:25:37;26.40;52.30
29539;DHT22;16482;51.046;4.498;2022-08-03T03:28:04;26.40;52.30
29539;DHT22;16482;51.046;4.498;2022-08-03T03:30:32;26.40;52.30
29539;DHT22;16482;51.046;4.498;2022-08-03T03:33:04;26.40;52.30
29539;DHT22;16482;51.046;4.498;2022-08-03T03:35:32;26.40;52.30
29539;DHT22;16482;51.046;4.498;2022-08-03T03:38:08;26.40;52.40
29539;DHT22;16482;51.046;4.498;2022-08-03T03:40:37;26.40;52.50
29539;DHT22;16482;51.046;4.498;2022-08-03T03:43:08;26.40;52.40
29539;DHT22;16482;51.046;4.498;2022-08-03T03:45:34;26.40;52.30
29539;DHT22;16482;51.046;4.498;2022-08-03T03:48:10;26.40;52.30
29539;DHT22;16482;51.046;4.498;2022-08-03T03:50:37;26.40;52.30
29539;DHT22;16482;51.046;4.498;2022-08-03T03:53:09;26.40;52.30
29539;DHT22;16482;51.046;4.498;2022-08-03T03:55:39;26.30;52.40
29539;DHT22;16482;51.046;4.498;2022-08-03T03:58:08;26.40;52.40
29539;DHT22;16482;51.046;4.498;2022-08-03T04:00:39;26.30;52.50
29539;DHT22;16482;51.046;4.498;2022-08-03T04:03:09;26.30;52.40
29539;DHT22;16482;51.046;4.498;2022-08-03T04:05:36;26.30;52.30
29539;DHT22;16482;51.046;4.498;2022-08-03T04:08:21;26.30;52.30
29539;DHT22;16482;51.046;4.498;2022-08-03T04:16:45;26.30;52.40
29539;DHT22;16482;51.046;4.498;2022-08-03T04:19:16;26.30;52.40
29539;DHT22;16482;51.046;4.498;2022-08-03T04:21:43;26.30;52.40
29539;DHT22;16482;51.046;4.498;2022-08-03T04:24:13;26.30;52.40
29539;DHT22;16482;51.046;4.498;2022-08-03T04:26:41;26.30;52.30
29539;DHT22;16482;51.046;4.498;2022-08-03T04:29:09;26.30;52.30
29539;DHT22;16482;51.046;4.498;2022-08-03T04:31:37;26.30;52.30
29539;DHT22;16482;51.046;4.498;2022-08-03T04:34:04;26.30;52.40
29539;DHT22;16482;51.046;4.498;2022-08-03T04:36:32;26.30;52.30
29539;DHT22;16482;51.046;4.498;2022-08-03T04:41:29;26.30;52.20
29539;DHT22;16482;51.046;4.498;2022-08-03T04:43:59;26.30;52.20
29539;DHT22;16482;51.046;4.498;2022-08-03T04:46:31;26.30;52.20
29539;DHT22;16482;51.046;4.498;2022-08-03T04:49:00;26.30;52.20
29539;DHT22;16482;51.046;4.498;2022-08-03T04:51:29;26.30;52.30
29539;DHT22;16482;51.046;4.498;2022-08-03T04:54:02;26.30;52.40
29539;DHT22;16482;51.046;4.498;2022-08-03T04:56:28;26.20;52.30
29539;DHT22;16482;51.046;4.498;2022-08-03T04:58:57;26.30;52.30
29539;DHT22;16482;51.046;4.498;2022-08-03T05:01:31;26.30;52.30
29539;DHT22;16482;51.046;4.498;2022-08-03T05:03:57;26.30;52.30
29539;DHT22;16482;51.046;4.498;2022-08-03T05:06:30;26.30;52.40
29539;DHT22;16482;51.046;4.498;2022-08-03T05:08:56;26.30;52.30
29539;DHT22;16482;51.046;4.498;2022-08-03T05:11:31;26.30;52.40
29539;DHT22;16482;51.046;4.498;2022-08-03T05:13:57;26.30;52.30
29539;DHT22;16482;51.046;4.498;2022-08-03T05:16:30;26.40;52.30
29539;DHT22;16482;51.046;4.498;2022-08-03T05:18:59;26.40;52.10
29539;DHT22;16482;51.046;4.498;2022-08-03T05:21:27;26.40;52.30
29539;DHT22;16482;51.046;4.498;2022-08-03T05:23:59;26.40;52.30
29539;DHT22;16482;51.046;4.498;2022-08-03T05:26:24;26.40;52.50
29539;DHT22;16482;51.046;4.498;2022-08-03T05:28:53;26.30;52.50
29539;DHT22;16482;51.046;4.498;2022-08-03T05:31:19;26.30;52.70
29539;DHT22;16482;51.046;4.498;2022-08-03T05:33:44;26.30;52.80
29539;DHT22;16482;51.046;4.498;2022-08-03T05:36:13;26.30;52.90
29539;DHT22;16482;51.046;4.498;2022-08-03T05:38:38;26.30;52.90
29539;DHT22;16482;51.046;4.498;2022-08-03T05:41:04;26.20;52.90
29539;DHT22;16482;51.046;4.498;2022-08-03T05:43:30;26.20;53.10
29539;DHT22;16482;51.046;4.498;2022-08-03T05:45:56;26.20;53.20
29539;DHT22;16482;51.046;4.498;2022-08-03T05:48:24;26.20;53.20
29539;DHT22;16482;51.046;4.498;2022-08-03T05:50:50;26.20;53.20
29539;DHT22;16482;51.046;4.498;2022-08-03T05:53:15;26.20;53.30
29539;DHT22;16482;51.046;4.498;2022-08-03T05:55:41;26.10;53.30
29539;DHT22;16482;51.046;4.498;2022-08-03T05:58:07;26.10;53.50
29539;DHT22;16482;51.046;4.498;2022-08-03T06:00:33;26.10;53.50
29539;DHT22;16482;51.046;4.498;2022-08-03T06:02:59;26.10;53.60
29539;DHT22;16482;51.046;4.498;2022-08-03T06:05:24;26.10;53.70
29539;DHT22;16482;51.046;4.498;2022-08-03T06:07:52;26.10;53.50
29539;DHT22;16482;51.046;4.498;2022-08-03T06:10:18;26.10;53.70
29539;DHT22;16482;51.046;4.498;2022-08-03T06:12:44;26.10;53.70
29539;DHT22;16482;51.046;4.498;2022-08-03T06:15:14;26.10;53.60
29539;DHT22;16482;51.046;4.498;2022-08-03T06:17:47;26.10;53.70
29539;DHT22;16482;51.046;4.498;2022-08-03T06:20:18;26.10;53.70
29539;DHT22;16482;51.046;4.498;2022-08-03T06:22:48;26.10;53.70
29539;DHT22;16482;51.046;4.498;2022-08-03T06:25:14;26.10;53.90
29539;DHT22;16482;51.046;4.498;2022-08-03T06:27:41;26.10;53.80
29539;DHT22;16482;51.046;4.498;2022-08-03T06:30:08;26.10;54.00
29539;DHT22;16482;51.046;4.498;2022-08-03T06:32:41;26.10;53.90
29539;DHT22;16482;51.046;4.498;2022-08-03T06:35:08;26.10;53.90
29539;DHT22;16482;51.046;4.498;2022-08-03T06:37:48;26.10;54.00
29539;DHT22;16482;51.046;4.498;2022-08-03T06:40:18;26.10;54.00
29539;DHT22;16482;51.046;4.498;2022-08-03T06:42:44;26.10;54.00
29539;DHT22;16482;51.046;4.498;2022-08-03T06:45:11;26.10;53.90
29539;DHT22;16482;51.046;4.498;2022-08-03T06:47:38;26.20;53.80
29539;DHT22;16482;51.046;4.498;2022-08-03T06:50:07;26.20;53.90
29539;DHT22;16482;51.046;4.498;2022-08-03T06:52:34;26.20;55.90
29539;DHT22;16482;51.046;4.498;2022-08-03T06:55:00;26.20;55.40
29539;DHT22;16482;51.046;4.498;2022-08-03T06:57:26;26.20;55.30
29539;DHT22;16482;51.046;4.498;2022-08-03T06:59:52;26.10;55.10
29539;DHT22;16482;51.046;4.498;2022-08-03T07:02:18;26.20;54.70
29539;DHT22;16482;51.046;4.498;2022-08-03T07:04:52;26.20;57.70
29539;DHT22;16482;51.046;4.498;2022-08-03T07:07:18;26.30;57.10
29539;DHT22;16482;51.046;4.498;2022-08-03T07:09:47;26.30;55.50
29539;DHT22;16482;51.046;4.498;2022-08-03T07:12:23;26.30;54.60
29539;DHT22;16482;51.046;4.498;2022-08-03T07:14:49;26.30;54.40
29539;DHT22;16482;51.046;4.498;2022-08-03T07:17:14;26.30;54.30
29539;DHT22;16482;51.046;4.498;2022-08-03T07:19:43;26.30;54.10
29539;DHT22;16482;51.046;4.498;2022-08-03T07:22:09;26.30;53.90
29539;DHT22;16482;51.046;4.498;2022-08-03T07:24:36;26.40;53.70
29539;DHT22;16482;51.046;4.498;2022-08-03T07:27:02;26.40;53.60
29539;DHT22;16482;51.046;4.498;2022-08-03T07:29:27;26.40;54.10
29539;DHT22;16482;51.046;4.498;2022-08-03T07:31:53;26.40;53.80
29539;DHT22;16482;51.046;4.498;2022-08-03T07:34:20;26.40;53.80
29539;DHT22;16482;51.046;4.498;2022-08-03T07:36:45;26.40;54.10
29539;DHT22;16482;51.046;4.498;2022-08-03T07:39:11;26.40;53.30
29539;DHT22;16482;51.046;4.498;2022-08-03T07:41:37;26.40;53.20
29539;DHT22;16482;51.046;4.498;2022-08-03T07:44:03;26.40;53.20
29539;DHT22;16482;51.046;4.498;2022-08-03T07:46:29;26.40;53.10
29539;DHT22;16482;51.046;4.498;2022-08-03T07:49:04;26.50;53.10
29539;DHT22;16482;51.046;4.498;2022-08-03T07:51:30;26.50;53.10
29539;DHT22;16482;51.046;4.498;2022-08-03T07:53:58;26.50;53.10
29539;DHT22;16482;51.046;4.498;2022-08-03T07:56:25;26.50;53.10
29539;DHT22;16482;51.046;4.498;2022-08-03T07:59:00;26.50;53.00
29539;DHT22;16482;51.046;4.498;2022-08-03T08:01:27;26.50;53.10
29539;DHT22;16482;51.046;4.498;2022-08-03T08:04:01;26.50;52.90
29539;DHT22;16482;51.046;4.498;2022-08-03T08:06:29;26.50;52.70
29539;DHT22;16482;51.046;4.498;2022-08-03T08:08:59;26.50;52.70
29539;DHT22;16482;51.046;4.498;2022-08-03T08:11:29;26.50;52.60
29539;DHT22;16482;51.046;4.498;2022-08-03T08:13:57;26.50;52.60
29539;DHT22;16482;51.046;4.498;2022-08-03T08:16:27;26.50;52.60
29539;DHT22;16482;51.046;4.498;2022-08-03T08:18:53;26.50;52.70
29539;DHT22;16482;51.046;4.498;2022-08-03T08:21:18;26.50;52.70
29539;DHT22;16482;51.046;4.498;2022-08-03T08:23:44;26.50;52.70
29539;DHT22;16482;51.046;4.498;2022-08-03T08:26:10;26.60;52.70
29539;DHT22;16482;51.046;4.498;2022-08-03T08:28:36;26.60;52.80
29539;DHT22;16482;51.046;4.498;2022-08-03T08:31:02;26.60;52.90
29539;DHT22;16482;51.046;4.498;2022-08-03T08:33:28;26.60;52.90
29539;DHT22;16482;51.046;4.498;2022-08-03T08:35:55;26.60;52.80
29539;DHT22;16482;51.046;4.498;2022-08-03T08:38:21;26.60;52.90
29539;DHT22;16482;51.046;4.498;2022-08-03T08:40:48;26.60;53.00
29539;DHT22;16482;51.046;4.498;2022-08-03T08:43:14;26.70;53.00
29539;DHT22;16482;51.046;4.498;2022-08-03T08:45:40;26.70;53.20
29539;DHT22;16482;51.046;4.498;2022-08-03T08:48:07;26.70;52.90
29539;DHT22;16482;51.046;4.498;2022-08-03T08:50:38;26.70;52.70
29539;DHT22;16482;51.046;4.498;2022-08-03T08:53:07;26.70;52.60
29539;DHT22;16482;51.046;4.498;2022-08-03T08:55:39;26.80;52.50
29539;DHT22;16482;51.046;4.498;2022-08-03T08:58:16;26.80;52.40
29539;DHT22;16482;51.046;4.498;2022-08-03T09:00:44;26.80;52.20
29539;DHT22;16482;51.046;4.498;2022-08-03T09:03:11;26.80;52.10
29539;DHT22;16482;51.046;4.498;2022-08-03T09:05:41;26.80;52.00
29539;DHT22;16482;51.046;4.498;2022-08-03T09:08:08;26.80;52.00
29539;DHT22;16482;51.046;4.498;2022-08-03T09:10:41;26.80;52.00
29539;DHT22;16482;51.046;4.498;2022-08-03T09:13:09;26.80;52.00
29539;DHT22;16482;51.046;4.498;2022-08-03T09:15:37;26.80;51.90
29539;DHT22;16482;51.046;4.498;2022-08-03T09:18:11;26.80;51.80
29539;DHT22;16482;51.046;4.498;2022-08-03T09:20:38;26.90;51.80
29539;DHT22;16482;51.046;4.498;2022-08-03T09:23:09;26.80;51.80
29539;DHT22;16482;51.046;4.498;2022-08-03T09:25:41;26.90;51.80
29539;DHT22;16482;51.046;4.498;2022-08-03T09:28:14;26.90;52.30
29539;DHT22;16482;51.046;4.498;2022-08-03T09:30:57;26.90;51.50
29539;DHT22;16482;51.046;4.498;2022-08-03T09:33:23;27.00;51.40
29539;DHT22;16482;51.046;4.498;2022-08-03T09:35:49;26.90;51.40
29539;DHT22;16482;51.046;4.498;2022-08-03T09:38:21;27.00;51.50
29539;DHT22;16482;51.046;4.498;2022-08-03T09:40:54;26.90;51.40
29539;DHT22;16482;51.046;4.498;2022-08-03T09:43:21;26.90;51.40
29539;DHT22;16482;51.046;4.498;2022-08-03T09:45:48;27.00;51.50
29539;DHT22;16482;51.046;4.498;2022-08-03T09:48:26;27.00;51.40
29539;DHT22;16482;51.046;4.498;2022-08-03T09:50:58;27.00;51.30
29539;DHT22;16482;51.046;4.498;2022-08-03T09:53:24;27.00;51.30
29539;DHT22;16482;51.046;4.498;2022-08-03T09:55:53;27.00;51.40
29539;DHT22;16482;51.046;4.498;2022-08-03T09:58:21;27.00;51.30
29539;DHT22;16482;51.046;4.498;2022-08-03T10:03:21;27.10;51.40
29539;DHT22;16482;51.046;4.498;2022-08-03T10:05:47;27.10;51.40
29539;DHT22;16482;51.046;4.498;2022-08-03T10:08:17;27.10;51.40
29539;DHT22;16482;51.046;4.498;2022-08-03T10:10:45;27.10;51.40
29539;DHT22;16482;51.046;4.498;2022-08-03T10:13:16;27.10;51.30
29539;DHT22;16482;51.046;4.498;2022-08-03T10:15:43;27.10;51.30
29539;DHT22;16482;51.046;4.498;2022-08-03T10:18:09;27.20;51.20
29539;DHT22;16482;51.046;4.498;2022-08-03T10:20:58;27.20;51.20
29539;DHT22;16482;51.046;4.498;2022-08-03T10:23:26;27.20;51.10
29539;DHT22;16482;51.046;4.498;2022-08-03T10:25:57;27.20;51.00
29539;DHT22;16482;51.046;4.498;2022-08-03T10:28:27;27.20;51.00
29539;DHT22;16482;51.046;4.498;2022-08-03T10:30:57;27.20;50.90
29539;DHT22;16482;51.046;4.498;2022-08-03T10:33:27;27.30;50.90
29539;DHT22;16482;51.046;4.498;2022-08-03T10:35:56;27.30;50.80
29539;DHT22;16482;51.046;4.498;2022-08-03T10:38:30;27.30;50.80
29539;DHT22;16482;51.046;4.498;2022-08-03T10:40:58;27.30;50.70
29539;DHT22;16482;51.046;4.498;2022-08-03T10:43:31;27.20;50.70
29539;DHT22;16482;51.046;4.498;2022-08-03T10:45:59;27.30;50.70
29539;DHT22;16482;51.046;4.498;2022-08-03T10:48:25;27.40;50.70
29539;DHT22;16482;51.046;4.498;2022-08-03T10:50:51;27.30;50.60
29539;DHT22;16482;51.046;4.498;2022-08-03T10:53:34;27.30;50.60
29539;DHT22;16482;51.046;4.498;2022-08-03T10:56:00;27.40;50.60
29539;DHT22;16482;51.046;4.498;2022-08-03T10:58:52;27.30;50.60
29539;DHT22;16482;51.046;4.498;2022-08-03T11:01:51;27.30;50.60
29539;DHT22;16482;51.046;4.498;2022-08-03T11:04:19;27.30;50.60
29539;DHT22;16482;51.046;4.498;2022-08-03T11:06:46;27.30;50.70
29539;DHT22;16482;51.046;4.498;2022-08-03T11:09:14;27.20;50.60
29539;DHT22;16482;51.046;4.498;2022-08-03T11:11:45;27.30;50.70
29539;DHT22;16482;51.046;4.498;2022-08-03T11:14:14;27.30;50.80
29539;DHT22;16482;51.046;4.498;2022-08-03T11:16:41;27.30;50.80
29539;DHT22;16482;51.046;4.498;2022-08-03T11:19:11;27.30;50.80
29539;DHT22;16482;51.046;4.498;2022-08-03T11:48:34;27.40;50.80
29539;DHT22;16482;51.046;4.498;2022-08-03T11:51:01;27.40;50.80
29539;DHT22;16482;51.046;4.498;2022-08-03T11:53:27;27.40;50.80
29539;DHT22;16482;51.046;4.498;2022-08-03T11:55:57;27.40;50.80
29539;DHT22;16482;51.046;4.498;2022-08-03T11:58:24;27.50;50.80
29539;DHT22;16482;51.046;4.498;2022-08-03T12:00:50;27.50;50.80
29539;DHT22;16482;51.046;4.498;2022-08-03T12:03:19;27.40;50.80
29539;DHT22;16482;51.046;4.498;2022-08-03T12:05:53;27.40;50.70
29539;DHT22;16482;51.046;4.498;2022-08-03T12:08:31;27.40;50.70
29539;DHT22;16482;51.046;4.498;2022-08-03T12:10:59;27.50;50.70
29539;DHT22;16482;51.046;4.498;2022-08-03T12:13:26;27.50;50.70
29539;DHT22;16482;51.046;4.498;2022-08-03T12:16:00;27.40;50.60
29539;DHT22;16482;51.046;4.498;2022-08-03T12:18:26;27.40;50.60
29539;DHT22;16482;51.046;4.498;2022-08-03T12:21:04;27.40;50.80
29539;DHT22;16482;51.046;4.498;2022-08-03T12:23:30;27.40;50.90
29539;DHT22;16482;51.046;4.498;2022-08-03T12:26:04;27.40;50.80
29539;DHT22;16482;51.046;4.498;2022-08-03T12:28:30;27.40;50.80
29539;DHT22;16482;51.046;4.498;2022-08-03T12:31:04;27.40;50.80
29539;DHT22;16482;51.046;4.498;2022-08-03T12:33:31;27.30;50.70
29539;DHT22;16482;51.046;4.498;2022-08-03T12:36:05;27.40;50.80
29539;DHT22;16482;51.046;4.498;2022-08-03T12:38:33;27.30;50.70
29539;DHT22;16482;51.046;4.498;2022-08-03T12:41:02;27.30;50.70
29539;DHT22;16482;51.046;4.498;2022-08-03T12:43:28;27.30;50.70
29539;DHT22;16482;51.046;4.498;2022-08-03T12:46:12;27.30;50.70
29539;DHT22;16482;51.046;4.498;2022-08-03T12:48:59;27.30;50.70
29539;DHT22;16482;51.046;4.498;2022-08-03T12:51:27;27.30;50.80
29539;DHT22;16482;51.046;4.498;2022-08-03T12:53:57;27.30;50.70
29539;DHT22;16482;51.046;4.498;2022-08-03T12:56:30;27.30;50.80
29539;DHT22;16482;51.046;4.498;2022-08-03T12:59:00;27.30;50.80
29539;DHT22;16482;51.046;4.498;2022-08-03T13:01:35;27.30;50.70
29539;DHT22;16482;51.046;4.498;2022-08-03T13:04:01;27.30;50.70
29539;DHT22;16482;51.046;4.498;2022-08-03T13:06:27;27.30;50.80
29539;DHT22;16482;51.046;4.498;2022-08-03T13:09:11;27.30;50.80
29539;DHT22;16482;51.046;4.498;2022-08-03T13:11:37;27.30;50.70
29539;DHT22;16482;51.046;4.498;2022-08-03T13:14:02;27.30;50.70
29539;DHT22;16482;51.046;4.498;2022-08-03T13:16:28;27.30;50.70
29539;DHT22;16482;51.046;4.498;2022-08-03T13:19:03;27.20;51.20
29539;DHT22;16482;51.046;4.498;2022-08-03T13:21:29;27.20;50.60
29539;DHT22;16482;51.046;4.498;2022-08-03T13:23:54;27.30;50.70
29539;DHT22;16482;51.046;4.498;2022-08-03T13:26:20;27.20;50.60
29539;DHT22;16482;51.046;4.498;2022-08-03T13:28:46;27.20;50.60
29539;DHT22;16482;51.046;4.498;2022-08-03T13:31:12;27.20;50.60
29539;DHT22;16482;51.046;4.498;2022-08-03T13:33:38;27.20;50.60
29539;DHT22;16482;51.046;4.498;2022-08-03T13:36:05;27.20;50.70
29539;DHT22;16482;51.046;4.498;2022-08-03T13:38:31;27.20;50.60
29539;DHT22;16482;51.046;4.498;2022-08-03T13:40:57;27.20;50.60
29539;DHT22;16482;51.046;4.498;2022-08-03T13:43:25;27.30;50.60
29539;DHT22;16482;51.046;4.498;2022-08-03T13:45:51;27.20;50.50
29539;DHT22;16482;51.046;4.498;2022-08-03T13:48:16;27.20;50.50
29539;DHT22;16482;51.046;4.498;2022-08-03T13:50:42;27.20;50.50
29539;DHT22;16482;51.046;4.498;2022-08-03T13:53:10;27.20;50.50
29539;DHT22;16482;51.046;4.498;2022-08-03T13:55:45;27.30;50.60
29539;DHT22;16482;51.046;4.498;2022-08-03T13:58:11;27.30;50.50
29539;DHT22;16482;51.046;4.498;2022-08-03T14:00:39;27.20;50.50
29539;DHT22;16482;51.046;4.498;2022-08-03T14:03:14;27.20;50.80
29539;DHT22;16482;51.046;4.498;2022-08-03T14:05:41;27.20;50.40
29539;DHT22;16482;51.046;4.498;2022-08-03T14:08:11;27.20;50.40
29539;DHT22;16482;51.046;4.498;2022-08-03T14:10:42;27.20;50.40
29539;DHT22;16482;51.046;4.498;2022-08-03T14:13:10;27.30;50.40
29539;DHT22;16482;51.046;4.498;2022-08-03T14:15:36;27.20;50.30
29539;DHT22;16482;51.046;4.498;2022-08-03T14:18:11;27.20;50.30
29539;DHT22;16482;51.046;4.498;2022-08-03T14:20:39;27.30;50.40
29539;DHT22;16482;51.046;4.498;2022-08-03T14:23:08;27.20;50.40
29539;DHT22;16482;51.046;4.498;2022-08-03T14:25:41;27.20;50.40
29539;DHT22;16482;51.046;4.498;2022-08-03T14:28:07;27.30;50.40
29539;DHT22;16482;51.046;4.498;2022-08-03T14:30:36;27.20;50.30
29539;DHT22;16482;51.046;4.498;2022-08-03T14:33:09;27.30;50.40
29539;DHT22;16482;51.046;4.498;2022-08-03T14:35:44;27.20;50.30
29539;DHT22;16482;51.046;4.498;2022-08-03T14:38:10;27.30;50.30
29539;DHT22;16482;51.046;4.498;2022-08-03T14:40:45;27.20;50.10
29539;DHT22;16482;51.046;4.498;2022-08-03T14:43:12;27.20;50.20
29539;DHT22;16482;51.046;4.498;2022-08-03T14:45:40;27.10;50.40
29539;DHT22;16482;51.046;4.498;2022-08-03T14:48:08;27.10;50.30
29539;DHT22;16482;51.046;4.498;2022-08-03T14:50:46;27.20;50.40
29539;DHT22;16482;51.046;4.498;2022-08-03T14:53:12;27.20;50.30
29539;DHT22;16482;51.046;4.498;2022-08-03T14:55:38;27.20;50.30
29539;DHT22;16482;51.046;4.498;2022-08-03T14:58:06;27.20;50.30
29539;DHT22;16482;51.046;4.498;2022-08-03T15:00:32;27.30;50.20
29539;DHT22;16482;51.046;4.498;2022-08-03T15:03:02;27.20;50.20
29539;DHT22;16482;51.046;4.498;2022-08-03T15:05:30;27.30;50.10
29539;DHT22;16482;51.046;4.498;2022-08-03T15:07:56;27.30;50.20
29539;DHT22;16482;51.046;4.498;2022-08-03T15:10:22;27.30;50.20
29539;DHT22;16482;51.046;4.498;2022-08-03T15:12:48;27.30;50.10
29539;DHT22;16482;51.046;4.498;2022-08-03T15:15:14;27.30;50.10
29539;DHT22;16482;51.046;4.498;2022-08-03T15:17:40;27.40;50.20
29539;DHT22;16482;51.046;4.498;2022-08-03T15:20:06;27.40;50.10
29539;DHT22;16482;51.046;4.498;2022-08-03T15:22:33;27.40;50.00
29539;DHT22;16482;51.046;4.498;2022-08-03T15:25:00;27.40;50.00
29539;DHT22;16482;51.046;4.498;2022-08-03T15:27:26;27.40;50.00
29539;DHT22;16482;51.046;4.498;2022-08-03T15:29:52;27.40;49.90
29539;DHT22;16482;51.046;4.498;2022-08-03T15:32:21;27.40;49.90
29539;DHT22;16482;51.046;4.498;2022-08-03T15:34:50;27.40;49.90
29539;DHT22;16482;51.046;4.498;2022-08-03T15:37:21;27.40;49.80
29539;DHT22;16482;51.046;4.498;2022-08-03T15:39:49;27.40;49.70
29539;DHT22;16482;51.046;4.498;2022-08-03T15:42:20;27.50;49.90
29539;DHT22;16482;51.046;4.498;2022-08-03T15:44:55;27.40;49.60
29539;DHT22;16482;51.046;4.498;2022-08-03T15:47:21;27.50;49.70
29539;DHT22;16482;51.046;4.498;2022-08-03T15:49:50;27.40;49.70
29539;DHT22;16482;51.046;4.498;2022-08-03T15:52:23;27.40;49.70
29539;DHT22;16482;51.046;4.498;2022-08-03T15:54:52;27.40;49.60
29539;DHT22;16482;51.046;4.498;2022-08-03T15:57:21;27.40;49.60
29539;DHT22;16482;51.046;4.498;2022-08-03T15:59:50;27.40;49.60
29539;DHT22;16482;51.046;4.498;2022-08-03T16:02:27;27.40;49.60
29539;DHT22;16482;51.046;4.498;2022-08-03T16:04:53;27.40;49.60
29539;DHT22;16482;51.046;4.498;2022-08-03T16:07:26;27.40;49.50
29539;DHT22;16482;51.046;4.498;2022-08-03T16:10:08;27.50;49.60
29539;DHT22;16482;51.046;4.498;2022-08-03T16:12:35;27.40;49.60
29539;DHT22;16482;51.046;4.498;2022-08-03T16:15:03;27.40;49.60
29539;DHT22;16482;51.046;4.498;2022-08-03T16:17:29;27.50;49.80
29539;DHT22;16482;51.046;4.498;2022-08-03T16:19:55;27.50;49.80
29539;DHT22;16482;51.046;4.498;2022-08-03T16:22:21;27.50;49.90
29539;DHT22;16482;51.046;4.498;2022-08-03T16:24:55;27.50;49.90
29539;DHT22;16482;51.046;4.498;2022-08-03T16:27:21;27.50;49.80
29539;DHT22;16482;51.046;4.498;2022-08-03T16:29:52;27.50;49.70